sensor_id;sensor_type;location;lat;lon;timestamp;pressure;altitude;pressure_sealevel;temperature;humidity
60920;BME280;59039;52.108;19.942;2023-01-15T00:00:43;99877.20;;;6.32;68.63
60920;BME280;59039;52.108;19.942;2023-01-15T00:03:08;99869.51;;;6.32;68.53
60920;BME280;59039;52.108;19.942;2023-01-15T00:05:37;99858.39;;;6.31;68.47
60920;BME280;59039;52.108;19.942;2023-01-15T00:08:02;99846.02;;;6.31;68.40
60920;BME280;59039;52.108;19.942;2023-01-15T00:10:28;99841.05;;;6.31;67.71
60920;BME280;59039;52.108;19.942;2023-01-15T00:12:53;99832.06;;;6.30;68.26
60920;BME280;59039;52.108;19.942;2023-01-15T00:15:18;99824.23;;;6.29;68.19
60920;BME280;59039;52.108;19.942;2023-01-15T00:17:44;99812.61;;;6.28;67.80
60920;BME280;59039;52.108;19.942;2023-01-15T00:20:12;99801.33;;;6.27;67.83
60920;BME280;59039;52.108;19.942;2023-01-15T00:22:37;99806.06;;;6.27;67.84
60920;BME280;59039;52.108;19.942;2023-01-15T00:25:03;99804.62;;;6.27;67.76
60920;BME280;59039;52.108;19.942;2023-01-15T00:27:29;99795.67;;;6.26;67.65
60920;BME280;59039;52.108;19.942;2023-01-15T00:29:54;99793.16;;;6.26;67.95
60920;BME280;59039;52.108;19.942;2023-01-15T00:32:20;99786.55;;;6.26;67.91
60920;BME280;59039;52.108;19.942;2023-01-15T00:34:45;99774.42;;;6.25;67.86
60920;BME280;59039;52.108;19.942;2023-01-15T00:37:13;99776.75;;;6.25;67.86
60920;BME280;59039;52.108;19.942;2023-01-15T00:39:39;99774.46;;;6.24;67.51
60920;BME280;59039;52.108;19.942;2023-01-15T00:42:04;99776.32;;;6.23;67.67
60920;BME280;59039;52.108;19.942;2023-01-15T00:44:38;99776.55;;;6.23;67.81
60920;BME280;59039;52.108;19.942;2023-01-15T00:47:04;99777.55;;;6.22;67.46
60920;BME280;59039;52.108;19.942;2023-01-15T00:49:32;99774.31;;;6.22;67.25
60920;BME280;59039;52.108;19.942;2023-01-15T00:52:00;99763.05;;;6.23;67.44
60920;BME280;59039;52.108;19.942;2023-01-15T00:54:28;99759.46;;;6.23;67.43
60920;BME280;59039;52.108;19.942;2023-01-15T00:56:53;99754.73;;;6.24;67.68
60920;BME280;59039;52.108;19.942;2023-01-15T00:59:39;99753.45;;;6.24;67.40
60920;BME280;59039;52.108;19.942;2023-01-15T01:02:04;99749.45;;;6.24;67.36
60920;BME280;59039;52.108;19.942;2023-01-15T01:04:29;99742.64;;;6.24;67.25
60920;BME280;59039;52.108;19.942;2023-01-15T01:06:55;99743.02;;;6.23;67.18
60920;BME280;59039;52.108;19.942;2023-01-15T01:09:20;99738.38;;;6.23;66.94
60920;BME280;59039;52.108;19.942;2023-01-15T01:11:48;99739.69;;;6.23;67.16
60920;BME280;59039;52.108;19.942;2023-01-15T01:14:14;99728.58;;;6.22;67.13
60920;BME280;59039;52.108;19.942;2023-01-15T01:16:59;99714.33;;;6.21;67.05
60920;BME280;59039;52.108;19.942;2023-01-15T01:19:25;99713.47;;;6.20;67.13
60920;BME280;59039;52.108;19.942;2023-01-15T01:21:51;99712.11;;;6.20;66.87
60920;BME280;59039;52.108;19.942;2023-01-15T01:24:24;99708.27;;;6.19;66.82
60920;BME280;59039;52.108;19.942;2023-01-15T01:26:49;99703.88;;;6.17;66.85
60920;BME280;59039;52.108;19.942;2023-01-15T01:29:17;99697.01;;;6.14;66.70
60920;BME280;59039;52.108;19.942;2023-01-15T01:31:44;99685.03;;;6.11;66.88
60920;BME280;59039;52.108;19.942;2023-01-15T01:34:10;99676.63;;;6.09;66.62
60920;BME280;59039;52.108;19.942;2023-01-15T01:36:38;99671.38;;;6.07;66.92
60920;BME280;59039;52.108;19.942;2023-01-15T01:39:05;99671.78;;;6.05;66.75
60920;BME280;59039;52.108;19.942;2023-01-15T01:41:32;99677.84;;;6.03;66.82
60920;BME280;59039;52.108;19.942;2023-01-15T01:46:30;99692.27;;;5.99;66.85
60920;BME280;59039;52.108;19.942;2023-01-15T01:51:34;99692.41;;;5.96;66.65
60920;BME280;59039;52.108;19.942;2023-01-15T01:54:01;99691.38;;;5.95;66.86
60920;BME280;59039;52.108;19.942;2023-01-15T01:56:33;99685.66;;;5.95;66.83
60920;BME280;59039;52.108;19.942;2023-01-15T01:59:04;99683.95;;;5.94;66.76
60920;BME280;59039;52.108;19.942;2023-01-15T02:01:31;99683.01;;;5.93;66.66
60920;BME280;59039;52.108;19.942;2023-01-15T02:03:56;99681.55;;;5.92;66.85
60920;BME280;59039;52.108;19.942;2023-01-15T02:06:30;99685.29;;;5.93;66.87
60920;BME280;59039;52.108;19.942;2023-01-15T02:08:56;99675.00;;;5.93;66.63
60920;BME280;59039;52.108;19.942;2023-01-15T02:11:22;99666.30;;;5.92;66.25
60920;BME280;59039;52.108;19.942;2023-01-15T02:13:57;99667.33;;;5.93;66.56
60920;BME280;59039;52.108;19.942;2023-01-15T02:19:21;99647.99;;;5.94;66.62
60920;BME280;59039;52.108;19.942;2023-01-15T02:22:13;99629.07;;;5.94;66.35
60920;BME280;59039;52.108;19.942;2023-01-15T02:24:51;99607.13;;;5.94;66.15
60920;BME280;59039;52.108;19.942;2023-01-15T02:27:24;99604.09;;;5.94;66.28
60920;BME280;59039;52.108;19.942;2023-01-15T02:32:33;99601.07;;;5.94;66.36
60920;BME280;59039;52.108;19.942;2023-01-15T02:35:08;99602.49;;;5.94;66.25
60920;BME280;59039;52.108;19.942;2023-01-15T02:37:40;99599.13;;;5.95;66.30
60920;BME280;59039;52.108;19.942;2023-01-15T02:40:06;99591.23;;;5.95;66.41
60920;BME280;59039;52.108;19.942;2023-01-15T02:42:34;99586.95;;;5.95;66.34
60920;BME280;59039;52.108;19.942;2023-01-15T02:47:52;99583.59;;;5.94;66.24
60920;BME280;59039;52.108;19.942;2023-01-15T02:50:31;99585.77;;;5.94;66.12
60920;BME280;59039;52.108;19.942;2023-01-15T02:53:02;99591.70;;;5.94;66.02
60920;BME280;59039;52.108;19.942;2023-01-15T02:55:32;99593.58;;;5.93;65.88
60920;BME280;59039;52.108;19.942;2023-01-15T02:58:01;99596.84;;;5.91;66.10
60920;BME280;59039;52.108;19.942;2023-01-15T03:00:38;99587.30;;;5.91;66.12
60920;BME280;59039;52.108;19.942;2023-01-15T03:03:15;99569.81;;;5.90;66.12
60920;BME280;59039;52.108;19.942;2023-01-15T03:05:50;99571.09;;;5.89;66.14
60920;BME280;59039;52.108;19.942;2023-01-15T03:08:20;99554.20;;;5.89;66.09
60920;BME280;59039;52.108;19.942;2023-01-15T03:11:08;99549.90;;;5.87;66.02
60920;BME280;59039;52.108;19.942;2023-01-15T03:14:05;99543.20;;;5.86;66.00
60920;BME280;59039;52.108;19.942;2023-01-15T03:16:39;99547.90;;;5.83;66.10
60920;BME280;59039;52.108;19.942;2023-01-15T03:22:14;99541.45;;;5.77;66.03
60920;BME280;59039;52.108;19.942;2023-01-15T03:24:53;99541.21;;;5.74;66.20
60920;BME280;59039;52.108;19.942;2023-01-15T03:27:24;99536.09;;;5.74;66.18
60920;BME280;59039;52.108;19.942;2023-01-15T03:29:54;99533.49;;;5.73;65.99
60920;BME280;59039;52.108;19.942;2023-01-15T03:32:27;99527.79;;;5.72;66.11
60920;BME280;59039;52.108;19.942;2023-01-15T03:34:54;99522.35;;;5.73;66.47
60920;BME280;59039;52.108;19.942;2023-01-15T03:37:23;99524.90;;;5.70;66.27
60920;BME280;59039;52.108;19.942;2023-01-15T03:39:50;99522.06;;;5.70;66.35
60920;BME280;59039;52.108;19.942;2023-01-15T03:48:01;99516.45;;;5.66;66.39
60920;BME280;59039;52.108;19.942;2023-01-15T03:50:50;99499.30;;;5.65;66.42
60920;BME280;59039;52.108;19.942;2023-01-15T03:54:08;99500.37;;;5.63;66.38
60920;BME280;59039;52.108;19.942;2023-01-15T03:59:12;99482.61;;;5.59;66.45
60920;BME280;59039;52.108;19.942;2023-01-15T04:01:42;99471.98;;;5.58;66.44
60920;BME280;59039;52.108;19.942;2023-01-15T04:04:13;99461.61;;;5.55;66.42
60920;BME280;59039;52.108;19.942;2023-01-15T04:06:41;99469.30;;;5.54;66.64
60920;BME280;59039;52.108;19.942;2023-01-15T04:09:11;99476.96;;;5.52;66.64
60920;BME280;59039;52.108;19.942;2023-01-15T04:11:39;99478.33;;;5.52;66.50
60920;BME280;59039;52.108;19.942;2023-01-15T04:14:05;99481.79;;;5.51;66.62
60920;BME280;59039;52.108;19.942;2023-01-15T04:16:32;99473.80;;;5.50;66.68
60920;BME280;59039;52.108;19.942;2023-01-15T04:18:58;99468.44;;;5.50;66.64
60920;BME280;59039;52.108;19.942;2023-01-15T04:21:26;99456.06;;;5.50;66.62
60920;BME280;59039;52.108;19.942;2023-01-15T04:23:53;99445.12;;;5.49;66.59
60920;BME280;59039;52.108;19.942;2023-01-15T04:26:22;99442.97;;;5.49;66.70
60920;BME280;59039;52.108;19.942;2023-01-15T04:28:47;99438.34;;;5.49;66.75
60920;BME280;59039;52.108;19.942;2023-01-15T04:31:13;99438.42;;;5.48;66.59
60920;BME280;59039;52.108;19.942;2023-01-15T04:33:39;99441.33;;;5.48;66.63
60920;BME280;59039;52.108;19.942;2023-01-15T04:36:06;99445.60;;;5.48;66.75
60920;BME280;59039;52.108;19.942;2023-01-15T04:38:31;99438.40;;;5.48;66.59
60920;BME280;59039;52.108;19.942;2023-01-15T04:41:03;99426.55;;;5.48;66.54
60920;BME280;59039;52.108;19.942;2023-01-15T04:43:29;99423.92;;;5.49;66.68
60920;BME280;59039;52.108;19.942;2023-01-15T04:46:02;99421.50;;;5.50;66.74
60920;BME280;59039;52.108;19.942;2023-01-15T04:48:27;99410.04;;;5.52;66.78
60920;BME280;59039;52.108;19.942;2023-01-15T04:50:53;99406.67;;;5.53;66.67
60920;BME280;59039;52.108;19.942;2023-01-15T04:53:19;99409.71;;;5.55;66.53
60920;BME280;59039;52.108;19.942;2023-01-15T04:55:44;99413.09;;;5.57;66.75
60920;BME280;59039;52.108;19.942;2023-01-15T04:58:10;99409.88;;;5.59;66.75
60920;BME280;59039;52.108;19.942;2023-01-15T05:00:35;99402.92;;;5.60;66.62
60920;BME280;59039;52.108;19.942;2023-01-15T05:03:01;99406.45;;;5.62;66.59
60920;BME280;59039;52.108;19.942;2023-01-15T05:05:26;99407.86;;;5.65;66.68
60920;BME280;59039;52.108;19.942;2023-01-15T05:07:52;99407.73;;;5.68;66.72
60920;BME280;59039;52.108;19.942;2023-01-15T05:10:18;99403.89;;;5.71;66.66
60920;BME280;59039;52.108;19.942;2023-01-15T05:12:43;99403.23;;;5.74;66.75
60920;BME280;59039;52.108;19.942;2023-01-15T05:15:17;99402.10;;;5.76;66.65
60920;BME280;59039;52.108;19.942;2023-01-15T05:17:43;99396.73;;;5.80;66.63
60920;BME280;59039;52.108;19.942;2023-01-15T05:20:09;99395.64;;;5.84;66.64
60920;BME280;59039;52.108;19.942;2023-01-15T05:22:34;99393.52;;;5.87;66.50
60920;BME280;59039;52.108;19.942;2023-01-15T05:25:00;99391.48;;;5.89;66.62
60920;BME280;59039;52.108;19.942;2023-01-15T05:27:25;99396.02;;;5.93;66.63
60920;BME280;59039;52.108;19.942;2023-01-15T05:29:50;99386.28;;;5.95;66.65
60920;BME280;59039;52.108;19.942;2023-01-15T05:32:16;99381.23;;;5.97;66.79
60920;BME280;59039;52.108;19.942;2023-01-15T05:34:41;99379.32;;;6.00;67.01
60920;BME280;59039;52.108;19.942;2023-01-15T05:37:10;99381.02;;;6.03;67.13
60920;BME280;59039;52.108;19.942;2023-01-15T05:39:35;99377.98;;;6.04;67.16
60920;BME280;59039;52.108;19.942;2023-01-15T05:42:01;99370.61;;;6.06;67.20
60920;BME280;59039;52.108;19.942;2023-01-15T05:44:30;99361.77;;;6.09;67.30
60920;BME280;59039;52.108;19.942;2023-01-15T05:47:01;99360.28;;;6.11;67.22
60920;BME280;59039;52.108;19.942;2023-01-15T05:49:27;99351.86;;;6.12;67.14
60920;BME280;59039;52.108;19.942;2023-01-15T05:51:56;99346.69;;;6.13;67.15
60920;BME280;59039;52.108;19.942;2023-01-15T05:54:31;99338.30;;;6.15;67.16
60920;BME280;59039;52.108;19.942;2023-01-15T05:57:00;99329.65;;;6.17;67.43
60920;BME280;59039;52.108;19.942;2023-01-15T05:59:29;99322.19;;;6.19;67.73
60920;BME280;59039;52.108;19.942;2023-01-15T06:01:55;99317.08;;;6.22;67.86
60920;BME280;59039;52.108;19.942;2023-01-15T06:04:21;99322.73;;;6.23;68.01
60920;BME280;59039;52.108;19.942;2023-01-15T06:06:51;99321.17;;;6.24;68.10
60920;BME280;59039;52.108;19.942;2023-01-15T06:09:17;99330.17;;;6.26;68.26
60920;BME280;59039;52.108;19.942;2023-01-15T06:11:46;99336.70;;;6.27;68.39
60920;BME280;59039;52.108;19.942;2023-01-15T06:14:11;99320.85;;;6.29;68.39
60920;BME280;59039;52.108;19.942;2023-01-15T06:16:39;99300.61;;;6.30;68.42
60920;BME280;59039;52.108;19.942;2023-01-15T06:19:08;99310.64;;;6.32;68.61
60920;BME280;59039;52.108;19.942;2023-01-15T06:21:38;99317.56;;;6.33;68.68
60920;BME280;59039;52.108;19.942;2023-01-15T06:24:04;99306.42;;;6.35;68.79
60920;BME280;59039;52.108;19.942;2023-01-15T06:26:29;99311.90;;;6.36;68.87
60920;BME280;59039;52.108;19.942;2023-01-15T06:28:57;99313.25;;;6.37;68.87
60920;BME280;59039;52.108;19.942;2023-01-15T06:31:23;99318.42;;;6.39;68.96
60920;BME280;59039;52.108;19.942;2023-01-15T06:33:49;99319.89;;;6.40;68.90
60920;BME280;59039;52.108;19.942;2023-01-15T06:36:17;99313.52;;;6.41;69.04
60920;BME280;59039;52.108;19.942;2023-01-15T06:38:43;99312.20;;;6.42;69.14
60920;BME280;59039;52.108;19.942;2023-01-15T06:41:15;99315.70;;;6.43;69.24
60920;BME280;59039;52.108;19.942;2023-01-15T06:43:40;99311.63;;;6.44;69.28
60920;BME280;59039;52.108;19.942;2023-01-15T06:46:08;99313.23;;;6.46;69.18
60920;BME280;59039;52.108;19.942;2023-01-15T06:48:33;99316.88;;;6.47;69.20
60920;BME280;59039;52.108;19.942;2023-01-15T06:50:59;99313.88;;;6.48;69.29
60920;BME280;59039;52.108;19.942;2023-01-15T06:53:25;99316.81;;;6.50;69.37
60920;BME280;59039;52.108;19.942;2023-01-15T06:55:50;99311.92;;;6.52;69.49
60920;BME280;59039;52.108;19.942;2023-01-15T06:58:16;99309.79;;;6.55;69.48
60920;BME280;59039;52.108;19.942;2023-01-15T07:00:43;99314.39;;;6.57;69.49
60920;BME280;59039;52.108;19.942;2023-01-15T07:03:09;99309.02;;;6.59;69.61
60920;BME280;59039;52.108;19.942;2023-01-15T07:05:37;99306.23;;;6.61;69.55
60920;BME280;59039;52.108;19.942;2023-01-15T07:08:03;99304.97;;;6.63;69.48
60920;BME280;59039;52.108;19.942;2023-01-15T07:10:28;99303.50;;;6.65;69.60
60920;BME280;59039;52.108;19.942;2023-01-15T07:12:54;99299.09;;;6.68;69.67
60920;BME280;59039;52.108;19.942;2023-01-15T07:15:19;99300.86;;;6.70;69.89
60920;BME280;59039;52.108;19.942;2023-01-15T07:17:58;99297.80;;;6.72;69.98
60920;BME280;59039;52.108;19.942;2023-01-15T07:20:23;99296.30;;;6.74;69.98
60920;BME280;59039;52.108;19.942;2023-01-15T07:22:52;99294.59;;;6.77;70.24
60920;BME280;59039;52.108;19.942;2023-01-15T07:25:17;99290.79;;;6.79;70.42
60920;BME280;59039;52.108;19.942;2023-01-15T07:27:45;99288.94;;;6.81;70.60
60920;BME280;59039;52.108;19.942;2023-01-15T07:30:11;99292.45;;;6.83;70.73
60920;BME280;59039;52.108;19.942;2023-01-15T07:32:39;99295.95;;;6.86;70.90
60920;BME280;59039;52.108;19.942;2023-01-15T07:35:05;99291.13;;;6.89;71.13
60920;BME280;59039;52.108;19.942;2023-01-15T07:37:31;99287.77;;;6.92;71.14
60920;BME280;59039;52.108;19.942;2023-01-15T07:39:56;99287.69;;;6.95;71.17
60920;BME280;59039;52.108;19.942;2023-01-15T07:42:22;99290.29;;;6.98;71.12
60920;BME280;59039;52.108;19.942;2023-01-15T07:44:47;99288.73;;;7.00;71.32
60920;BME280;59039;52.108;19.942;2023-01-15T07:47:16;99287.48;;;7.04;71.41
60920;BME280;59039;52.108;19.942;2023-01-15T07:49:43;99287.60;;;7.08;71.62
60920;BME280;59039;52.108;19.942;2023-01-15T07:52:08;99288.16;;;7.11;71.80
60920;BME280;59039;52.108;19.942;2023-01-15T07:54:34;99287.27;;;7.16;71.86
60920;BME280;59039;52.108;19.942;2023-01-15T07:56:59;99283.48;;;7.20;71.89
60920;BME280;59039;52.108;19.942;2023-01-15T07:59:25;99281.95;;;7.24;71.93
60920;BME280;59039;52.108;19.942;2023-01-15T08:01:50;99272.75;;;7.27;72.00
60920;BME280;59039;52.108;19.942;2023-01-15T08:04:24;99270.84;;;7.32;72.17
60920;BME280;59039;52.108;19.942;2023-01-15T08:06:50;99270.48;;;7.37;72.35
60920;BME280;59039;52.108;19.942;2023-01-15T08:09:15;99273.01;;;7.42;72.13
60920;BME280;59039;52.108;19.942;2023-01-15T08:11:41;99271.87;;;7.46;72.44
60920;BME280;59039;52.108;19.942;2023-01-15T08:14:08;99264.35;;;7.50;72.43
60920;BME280;59039;52.108;19.942;2023-01-15T08:16:36;99263.05;;;7.55;72.69
60920;BME280;59039;52.108;19.942;2023-01-15T08:19:02;99262.50;;;7.58;72.77
60920;BME280;59039;52.108;19.942;2023-01-15T08:21:28;99265.71;;;7.61;72.93
60920;BME280;59039;52.108;19.942;2023-01-15T08:23:53;99260.49;;;7.65;73.16
60920;BME280;59039;52.108;19.942;2023-01-15T08:26:21;99260.95;;;7.67;73.00
60920;BME280;59039;52.108;19.942;2023-01-15T08:28:47;99261.00;;;7.68;73.30
60920;BME280;59039;52.108;19.942;2023-01-15T08:31:25;99253.64;;;7.71;73.29
60920;BME280;59039;52.108;19.942;2023-01-15T08:33:50;99245.64;;;7.74;73.47
60920;BME280;59039;52.108;19.942;2023-01-15T08:36:16;99247.64;;;7.76;73.72
60920;BME280;59039;52.108;19.942;2023-01-15T08:38:41;99243.58;;;7.76;73.56
60920;BME280;59039;52.108;19.942;2023-01-15T08:41:07;99244.99;;;7.78;73.54
60920;BME280;59039;52.108;19.942;2023-01-15T08:43:32;99247.51;;;7.80;73.53
60920;BME280;59039;52.108;19.942;2023-01-15T08:45:59;99246.40;;;7.80;73.58
60920;BME280;59039;52.108;19.942;2023-01-15T08:48:25;99245.11;;;7.81;73.83
60920;BME280;59039;52.108;19.942;2023-01-15T08:50:51;99244.80;;;7.81;73.81
60920;BME280;59039;52.108;19.942;2023-01-15T08:53:17;99249.11;;;7.82;73.90
60920;BME280;59039;52.108;19.942;2023-01-15T08:55:42;99246.84;;;7.83;73.83
60920;BME280;59039;52.108;19.942;2023-01-15T08:58:08;99245.86;;;7.84;73.89
60920;BME280;59039;52.108;19.942;2023-01-15T09:00:33;99247.65;;;7.84;74.05
60920;BME280;59039;52.108;19.942;2023-01-15T09:02:58;99249.01;;;7.84;74.12
60920;BME280;59039;52.108;19.942;2023-01-15T09:05:24;99243.84;;;7.86;73.87
60920;BME280;59039;52.108;19.942;2023-01-15T09:07:49;99247.23;;;7.86;73.90
60920;BME280;59039;52.108;19.942;2023-01-15T09:10:14;99253.00;;;7.86;73.92
60920;BME280;59039;52.108;19.942;2023-01-15T09:12:40;99246.27;;;7.86;73.77
60920;BME280;59039;52.108;19.942;2023-01-15T09:15:06;99249.05;;;7.86;73.92
60920;BME280;59039;52.108;19.942;2023-01-15T09:17:31;99242.83;;;7.87;73.88
60920;BME280;59039;52.108;19.942;2023-01-15T09:19:57;99249.94;;;7.86;73.98
60920;BME280;59039;52.108;19.942;2023-01-15T09:22:25;99246.06;;;7.85;73.86
60920;BME280;59039;52.108;19.942;2023-01-15T09:24:50;99244.31;;;7.84;73.81
60920;BME280;59039;52.108;19.942;2023-01-15T09:27:16;99242.85;;;7.83;73.91
60920;BME280;59039;52.108;19.942;2023-01-15T09:29:41;99244.03;;;7.82;73.96
60920;BME280;59039;52.108;19.942;2023-01-15T09:32:07;99246.27;;;7.81;73.92
60920;BME280;59039;52.108;19.942;2023-01-15T09:34:37;99244.84;;;7.81;73.92
60920;BME280;59039;52.108;19.942;2023-01-15T09:37:03;99240.78;;;7.81;73.89
60920;BME280;59039;52.108;19.942;2023-01-15T09:39:28;99241.05;;;7.80;73.83
60920;BME280;59039;52.108;19.942;2023-01-15T09:52:31;99239.54;;;7.73;73.77
60920;BME280;59039;52.108;19.942;2023-01-15T09:55:16;99232.45;;;7.71;73.86
60920;BME280;59039;52.108;19.942;2023-01-15T09:57:43;99230.25;;;7.68;73.86
60920;BME280;59039;52.108;19.942;2023-01-15T10:00:19;99222.16;;;7.66;73.78
60920;BME280;59039;52.108;19.942;2023-01-15T10:02:53;99224.41;;;7.63;74.05
60920;BME280;59039;52.108;19.942;2023-01-15T10:08:23;99218.14;;;7.58;73.94
60920;BME280;59039;52.108;19.942;2023-01-15T10:14:02;99214.38;;;7.52;73.94
60920;BME280;59039;52.108;19.942;2023-01-15T10:16:30;99213.12;;;7.49;74.24
60920;BME280;59039;52.108;19.942;2023-01-15T10:18:57;99209.11;;;7.46;74.09
60920;BME280;59039;52.108;19.942;2023-01-15T10:24:36;99203.59;;;7.39;74.08
60920;BME280;59039;52.108;19.942;2023-01-15T10:27:13;99200.55;;;7.36;74.26
60920;BME280;59039;52.108;19.942;2023-01-15T10:29:44;99196.52;;;7.33;74.51
60920;BME280;59039;52.108;19.942;2023-01-15T10:45:57;99188.00;;;7.23;74.58
60920;BME280;59039;52.108;19.942;2023-01-15T10:51:00;99181.11;;;7.22;74.81
60920;BME280;59039;52.108;19.942;2023-01-15T10:56:32;99179.23;;;7.21;74.67
60920;BME280;59039;52.108;19.942;2023-01-15T11:01:51;99178.29;;;7.20;74.79
60920;BME280;59039;52.108;19.942;2023-01-15T11:04:23;99180.08;;;7.20;74.77
60920;BME280;59039;52.108;19.942;2023-01-15T11:06:58;99174.85;;;7.20;74.81
60920;BME280;59039;52.108;19.942;2023-01-15T11:09:25;99172.41;;;7.19;74.91
60920;BME280;59039;52.108;19.942;2023-01-15T11:11:56;99170.25;;;7.19;74.82
60920;BME280;59039;52.108;19.942;2023-01-15T11:14:41;99170.96;;;7.19;74.78
60920;BME280;59039;52.108;19.942;2023-01-15T11:17:12;99163.27;;;7.19;74.85
60920;BME280;59039;52.108;19.942;2023-01-15T11:19:41;99161.11;;;7.19;74.95
60920;BME280;59039;52.108;19.942;2023-01-15T11:24:47;99160.49;;;7.19;74.95
60920;BME280;59039;52.108;19.942;2023-01-15T11:27:21;99159.71;;;7.20;74.86
60920;BME280;59039;52.108;19.942;2023-01-15T11:29:57;99165.84;;;7.20;74.72
60920;BME280;59039;52.108;19.942;2023-01-15T11:32:28;99164.39;;;7.20;74.69
60920;BME280;59039;52.108;19.942;2023-01-15T11:35:13;99162.61;;;7.20;74.78
60920;BME280;59039;52.108;19.942;2023-01-15T11:37:38;99158.23;;;7.20;74.79
60920;BME280;59039;52.108;19.942;2023-01-15T11:40:25;99164.15;;;7.20;74.81
60920;BME280;59039;52.108;19.942;2023-01-15T11:42:55;99156.48;;;7.21;74.70
60920;BME280;59039;52.108;19.942;2023-01-15T11:45:22;99152.20;;;7.23;74.62
60920;BME280;59039;52.108;19.942;2023-01-15T11:47:54;99149.02;;;7.24;74.55
60920;BME280;59039;52.108;19.942;2023-01-15T11:50:22;99146.56;;;7.25;74.44
60920;BME280;59039;52.108;19.942;2023-01-15T11:52:51;99146.23;;;7.26;74.34
60920;BME280;59039;52.108;19.942;2023-01-15T11:55:20;99147.23;;;7.27;74.17
60920;BME280;59039;52.108;19.942;2023-01-15T11:57:46;99150.00;;;7.26;74.10
60920;BME280;59039;52.108;19.942;2023-01-15T12:00:20;99154.98;;;7.27;74.10
60920;BME280;59039;52.108;19.942;2023-01-15T12:02:47;99155.73;;;7.28;74.04
60920;BME280;59039;52.108;19.942;2023-01-15T12:05:19;99154.27;;;7.30;74.00
60920;BME280;59039;52.108;19.942;2023-01-15T12:07:47;99150.56;;;7.31;73.88
60920;BME280;59039;52.108;19.942;2023-01-15T12:10:21;99152.02;;;7.32;73.78
60920;BME280;59039;52.108;19.942;2023-01-15T12:18:57;99143.85;;;7.37;73.45
60920;BME280;59039;52.108;19.942;2023-01-15T12:21:47;99139.40;;;7.38;73.40
60920;BME280;59039;52.108;19.942;2023-01-15T12:30:02;99139.80;;;7.44;73.18
60920;BME280;59039;52.108;19.942;2023-01-15T12:32:39;99145.40;;;7.46;73.00
60920;BME280;59039;52.108;19.942;2023-01-15T12:35:29;99143.98;;;7.47;72.91
60920;BME280;59039;52.108;19.942;2023-01-15T12:41:01;99146.79;;;7.51;72.67
60920;BME280;59039;52.108;19.942;2023-01-15T12:43:27;99143.48;;;7.53;72.51
60920;BME280;59039;52.108;19.942;2023-01-15T12:45:53;99144.05;;;7.55;72.43
60920;BME280;59039;52.108;19.942;2023-01-15T12:48:33;99146.42;;;7.56;72.28
60920;BME280;59039;52.108;19.942;2023-01-15T12:51:02;99144.37;;;7.59;72.23
60920;BME280;59039;52.108;19.942;2023-01-15T12:56:17;99143.52;;;7.61;71.94
60920;BME280;59039;52.108;19.942;2023-01-15T12:59:10;99139.78;;;7.63;71.84
60920;BME280;59039;52.108;19.942;2023-01-15T13:01:55;99146.13;;;7.64;71.83
60920;BME280;59039;52.108;19.942;2023-01-15T13:04:33;99154.29;;;7.65;71.96
60920;BME280;59039;52.108;19.942;2023-01-15T13:07:15;99153.90;;;7.67;71.85
60920;BME280;59039;52.108;19.942;2023-01-15T13:10:01;99153.37;;;7.68;71.69
60920;BME280;59039;52.108;19.942;2023-01-15T13:12:29;99153.80;;;7.69;71.56
60920;BME280;59039;52.108;19.942;2023-01-15T13:14:54;99154.72;;;7.71;71.49
60920;BME280;59039;52.108;19.942;2023-01-15T13:17:40;99148.78;;;7.72;71.39
60920;BME280;59039;52.108;19.942;2023-01-15T13:20:30;99158.72;;;7.74;71.34
60920;BME280;59039;52.108;19.942;2023-01-15T13:28:41;99168.73;;;7.78;70.74
60920;BME280;59039;52.108;19.942;2023-01-15T13:34:01;99172.30;;;7.80;70.68
60920;BME280;59039;52.108;19.942;2023-01-15T13:36:35;99182.42;;;7.81;70.59
60920;BME280;59039;52.108;19.942;2023-01-15T13:39:03;99188.31;;;7.84;70.70
60920;BME280;59039;52.108;19.942;2023-01-15T13:41:32;99188.66;;;7.86;70.52
60920;BME280;59039;52.108;19.942;2023-01-15T13:43:59;99186.14;;;7.87;70.38
60920;BME280;59039;52.108;19.942;2023-01-15T13:46:25;99187.91;;;7.89;70.32
60920;BME280;59039;52.108;19.942;2023-01-15T13:48:51;99204.42;;;7.90;70.42
60920;BME280;59039;52.108;19.942;2023-01-15T13:53:48;99211.85;;;7.91;70.22
60920;BME280;59039;52.108;19.942;2023-01-15T13:56:29;99215.54;;;7.92;70.12
60920;BME280;59039;52.108;19.942;2023-01-15T13:58:57;99214.95;;;7.92;69.97
60920;BME280;59039;52.108;19.942;2023-01-15T14:01:32;99216.55;;;7.93;69.93
60920;BME280;59039;52.108;19.942;2023-01-15T14:06:41;99226.66;;;7.94;69.90
60920;BME280;59039;52.108;19.942;2023-01-15T14:12:00;99222.38;;;7.95;69.85
60920;BME280;59039;52.108;19.942;2023-01-15T14:15:02;99223.39;;;7.96;69.56
60920;BME280;59039;52.108;19.942;2023-01-15T14:29:03;99205.30;;;7.97;69.57
60920;BME280;59039;52.108;19.942;2023-01-15T14:31:48;99206.86;;;7.98;69.53
60920;BME280;59039;52.108;19.942;2023-01-15T14:34:21;99208.11;;;7.98;69.50
60920;BME280;59039;52.108;19.942;2023-01-15T14:36:57;99216.13;;;7.99;69.47
60920;BME280;59039;52.108;19.942;2023-01-15T14:44:41;99218.02;;;7.99;69.64
60920;BME280;59039;52.108;19.942;2023-01-15T14:47:19;99226.30;;;7.99;69.64
60920;BME280;59039;52.108;19.942;2023-01-15T14:49:59;99226.85;;;7.99;69.72
60920;BME280;59039;52.108;19.942;2023-01-15T14:52:25;99224.27;;;7.98;69.63
60920;BME280;59039;52.108;19.942;2023-01-15T14:54:52;99229.73;;;7.98;69.71
60920;BME280;59039;52.108;19.942;2023-01-15T14:57:19;99235.10;;;7.98;69.60
60920;BME280;59039;52.108;19.942;2023-01-15T14:59:57;99223.42;;;7.98;69.72
60920;BME280;59039;52.108;19.942;2023-01-15T15:02:32;99226.52;;;7.98;69.76
60920;BME280;59039;52.108;19.942;2023-01-15T15:05:00;99230.80;;;7.98;69.68
60920;BME280;59039;52.108;19.942;2023-01-15T15:07:34;99234.89;;;7.98;69.81
60920;BME280;59039;52.108;19.942;2023-01-15T15:26:01;99247.30;;;7.93;70.08
60920;BME280;59039;52.108;19.942;2023-01-15T15:28:27;99246.52;;;7.92;70.01